Flight Track Log - Related Links

Times and Time Zones

All times are in EDT time to prevent confusion due to time zone crossing. See the TCF5990 flight status page for this flight to view local times or setup timezone preferences in your user account.

Time Position Orientation Groundspeed Altitude Reporting Facility
EDT Latitude Longitude Course Direction KTS MPH feet Rate Location/Type
Tue 01:49:13 PM 40.7500 -73.8500 270° West 139 160 1,900  Level New York TRACON
Tue 01:50:13 PM 40.7500 -73.7833 90° East 252 290 4,600 2,800 Climbing New York TRACON
Tue 01:51:00 PM 40.7833 -74.2306 270° West  Level FlightAware Approximate
Tue 01:51:13 PM 40.8000 -73.8167 333° Northwest 254 292 7,500  Level New York TRACON
Tue 01:52:00 PM 40.7834 -74.3535 270° West  Level FlightAware Approximate
Tue 01:52:13 PM 40.8500 -73.9000 308° West 270 311 9,700  Level New York TRACON
Tue 01:53:00 PM 40.7834 -74.4764 270° West  Level FlightAware Approximate
Tue 01:53:13 PM 40.8667 -73.9833 285° West 269 310 12,300  Level New York TRACON
Tue 01:54:00 PM 40.7834 -74.5993 270° West  Level FlightAware Approximate
Tue 01:54:13 PM 40.8667 -74.1000 270° West 307 353 14,600  Level New York TRACON
Tue 01:55:13 PM 40.8500 -74.2167 259° West 322 371 15,000 1,200 Climbing New York TRACON
Tue 01:56:13 PM 40.8500 -74.3500 270° West 338 389 17,000 1,000 Climbing New York TRACON
Tue 01:57:13 PM 40.8333 -74.4667 259° West 325 374 17,000  Level New York TRACON
Tue 01:58:46 PM 40.8314 -74.6436 269° West 319 367 17,000  Level New York Center
Tue 01:59:46 PM 40.8258 -74.7503 266° West 330 380 17,000 744 Level New York Center
Tue 02:00:47 PM 40.8169 -74.8867 265° West 337 388 18,500 1,721 Climbing New York Center
Tue 02:01:48 PM 40.8106 -75.0069 266° West 337 388 20,500 1,884 Climbing New York Center
Tue 02:02:48 PM 40.8019 -75.1325 265° West 337 388 22,300 1,686 Climbing New York Center
Tue 02:03:49 PM 40.7831 -75.2492 258° West 355 409 23,900 1,627 Climbing New York Center
Tue 02:04:46 PM 40.7633 -75.3794 259° West 361 415 25,500 1,576 Climbing New York Center
Tue 02:05:47 PM 40.7183 -75.5161 247° West 366 421 27,000 1,426 Climbing New York Center
Tue 02:06:48 PM 40.6714 -75.6442 244° Southwest 380 437 28,400 1,613 Climbing New York Center
Tue 02:07:46 PM 40.6203 -75.7717 242° Southwest 393 452 30,200 1,613 Climbing New York Center
Tue 02:08:47 PM 40.5731 -75.9022 245° Southwest 398 458 31,600 1,574 Climbing New York Center
Tue 02:09:48 PM 40.5242 -76.0186 241° Southwest 398 458 33,400 1,200 Climbing New York Center
Tue 02:10:47 PM 40.4769 -76.1433 244° Southwest 398 458 34,000 300 Climbing New York Center
Tue 02:11:48 PM 40.4272 -76.2731 243° Southwest 398 458 34,000  Level New York Center
Tue 02:12:48 PM 40.3794 -76.3975 243° Southwest 398 458 34,000  Level New York Center
Tue 02:13:46 PM 40.3319 -76.5214 243° Southwest 398 458 34,000  Level New York Center
Tue 02:14:46 PM 40.2800 -76.6450 241° Southwest 393 452 34,000  Level New York Center
Tue 02:15:47 PM 40.2322 -76.7661 243° Southwest 393 452 34,000  Level New York Center
Tue 02:16:48 PM 40.1772 -76.9028 242° Southwest 393 452 34,000  Level New York Center
Tue 02:17:48 PM 40.1292 -77.0233 242° Southwest 388 447 34,000  Level New York Center
Tue 02:18:48 PM 40.0789 -77.1464 242° Southwest 388 447 34,000  Level New York Center
Tue 02:19:49 PM 40.0283 -77.2692 242° Southwest 388 447 34,000  Level New York Center
Tue 02:20:47 PM 39.9800 -77.3867 242° Southwest 383 441 34,000  Level New York Center
Tue 02:21:48 PM 39.9558 -77.5225 257° West 373 429 34,000  Level New York Center
Tue 02:22:51 PM 39.9589 -77.6606 272° West 374 430 34,000  Level Cleveland Center
Tue 02:23:51 PM 39.9642 -77.7986 273° West 379 436 34,000  Level Cleveland Center
Tue 02:24:51 PM 39.9697 -77.9392 273° West 384 442 34,000  Level Cleveland Center
Tue 02:25:51 PM 39.9728 -78.0772 272° West 384 442 34,000  Level Cleveland Center
Tue 02:26:51 PM 39.9781 -78.2153 273° West 384 442 34,000  Level Cleveland Center
Tue 02:27:51 PM 39.9828 -78.3533 273° West 384 442 34,000  Level Cleveland Center
Tue 02:28:51 PM 39.9856 -78.4914 272° West 384 442 34,000 -150 Level Cleveland Center
Tue 02:29:51 PM 39.9900 -78.6294 272° West 384 442 33,700 -600 Descending Cleveland Center
Tue 02:30:51 PM 39.9903 -78.7731 270° West 384 442 32,800 -850 Descending Cleveland Center
Tue 02:31:51 PM 39.9925 -78.9139 271° West 384 442 32,000 -400 Descending Cleveland Center
Tue 02:32:51 PM 39.9989 -79.0708 273° West 389 448 32,000  Level Cleveland Center
Tue 02:33:51 PM 40.0028 -79.2144 272° West 389 448 32,000  Level Cleveland Center
Tue 02:34:51 PM 40.0042 -79.3581 271° West 394 453 32,000  Level Cleveland Center
Tue 02:35:51 PM 40.0078 -79.5017 272° West 399 459 32,000  Level Cleveland Center
Tue 02:36:51 PM 40.0092 -79.6397 271° West 399 459 32,000  Level Cleveland Center
Tue 02:37:51 PM 40.0103 -79.7808 271° West 399 459 32,000  Level Cleveland Center
Tue 02:38:51 PM 40.0111 -79.9272 270° West 399 459 32,000  Level Cleveland Center
Tue 02:39:51 PM 40.0139 -80.0544 272° West 399 459 32,000  Level Cleveland Center
Tue 02:40:51 PM 40.0164 -80.1981 271° West 399 459 32,000  Level Cleveland Center
Tue 02:41:51 PM 40.0169 -80.3419 270° West 399 459 32,000  Level Cleveland Center
Tue 02:42:51 PM 40.0172 -80.4856 270° West 399 459 32,000 -450 Level Cleveland Center
Tue 02:43:51 PM 40.0089 -80.6264 266° West 399 459 31,100 -900 Descending Cleveland Center
Tue 02:44:51 PM 39.9878 -80.7619 259° West 404 465 30,200 -1,200 Descending Cleveland Center
Tue 02:45:51 PM 39.9667 -80.8919 258° West 393 452 28,700 -1,781 Descending Cleveland Center
Tue 02:48:03 PM 39.9192 -81.1692 257° West 358 412 24,500 -1,948 Descending Indianapolis Center
Tue 02:49:05 PM 39.8953 -81.3139 258° West 341 392 22,400 -1,854 Descending Indianapolis Center
Tue 02:50:06 PM 39.8758 -81.4253 257° West 320 368 20,700 -1,610 Descending Indianapolis Center
Tue 02:51:08 PM 39.8583 -81.5339 258° West 317 365 19,100 -1,548 Descending Indianapolis Center
Tue 02:52:10 PM 39.8400 -81.6442 258° West 310 357 17,500 -1,548 Descending Indianapolis Center
Tue 02:53:12 PM 39.8219 -81.7497 257° West 299 344 15,900 -1,761 Descending Indianapolis Center
Tue 02:53:42 PM 39.8094 -81.8194 257° West 294 338 14,800 -1,645 Descending Indianapolis Center
Tue 02:54:14 PM 39.8033 -81.8539 257° West 294 338 14,200 -1,347 Descending Indianapolis Center
Tue 02:54:31 PM 39.7967 -81.8969 259° West 288 331 13,700 -1,672 Descending Indianapolis Center
Tue 02:55:15 PM 39.8072 -81.9725 280° West 291 335 12,500 -1,636 Descending Indianapolis Center
Tue 02:55:37 PM 39.8150 -82.0125 284° West 292 336 11,900 -1,548 Descending Indianapolis Center
Tue 02:56:17 PM 39.8297 -82.0717 288° West 287 330 10,900 -1,343 Descending Indianapolis Center
Tue 02:56:44 PM 39.8400 -82.1156 287° West 276 318 10,400 -1,161 Descending Indianapolis Center
Tue 02:57:19 PM 39.8517 -82.1650 287° West 270 311 9,700 -1,200 Descending Indianapolis Center
Tue 02:57:39 PM 39.8581 -82.1986 284° West 256 295 9,300 -1,065 Descending Indianapolis Center
Tue 02:58:21 PM 39.8717 -82.2528 288° West 255 293 8,600 -1,038 Descending Indianapolis Center
Tue 02:59:23 PM 39.8931 -82.3414 287° West 254 292 7,500 -1,016 Descending Indianapolis Center
Tue 03:00:25 PM 39.9147 -82.4300 288° West 255 293 6,500 -1,000 Descending Indianapolis Center
Tue 03:00:41 PM 39.9211 -82.4606 285° West 255 293 6,200 -1,082 Descending Indianapolis Center
Tue 03:01:26 PM 39.9358 -82.5181 288° West 254 292 5,400 -1,082 Descending Indianapolis Center
Tue 03:01:42 PM 39.9406 -82.5469 282° West 251 289 5,100 -968 Descending Indianapolis Center
Tue 03:02:28 PM 39.9564 -82.6019 291° West 245 282 4,400 -944 Descending Indianapolis Center
Tue 03:03:30 PM 39.9761 -82.6889 287° West 225 259 3,400 -823 Descending Indianapolis Center
Tue 03:04:32 PM 39.9903 -82.7486 287° West 193 222 2,700 -726 Descending Indianapolis Center
Tue 03:05:34 PM 39.9989 -82.8072 281° West 175 201 1,900 -774 Descending Indianapolis Center
Tue 03:06:36 PM 40.0008 -82.8539 273° West 146 168 1,100 -439 Descending Indianapolis Center
Tue 03:07:37 PM 40.0039 -82.8969 275° West 142 163 1,000 -98 Descending Indianapolis Center
Tue 03:09:00 PM 39.9980 -82.8920 180° South  Level Estimated

Login

Don't have an account? Register now (free) for customized features, flight alerts, and more!